sensor_id;sensor_type;location;lat;lon;timestamp;temperature;humidity
10883;DHT22;5494;51.796;10.952;2023-04-03T00:01:25;0.70;99.90
10883;DHT22;5494;51.796;10.952;2023-04-03T00:04:14;0.60;99.90
10883;DHT22;5494;51.796;10.952;2023-04-03T00:07:04;0.60;99.90
10883;DHT22;5494;51.796;10.952;2023-04-03T00:09:52;0.50;99.90
10883;DHT22;5494;51.796;10.952;2023-04-03T00:12:40;0.50;99.90
10883;DHT22;5494;51.796;10.952;2023-04-03T00:15:28;0.50;99.90
10883;DHT22;5494;51.796;10.952;2023-04-03T00:18:17;0.00;99.90
10883;DHT22;5494;51.796;10.952;2023-04-03T00:21:06;0.50;99.90
10883;DHT22;5494;51.796;10.952;2023-04-03T00:23:56;0.40;99.90
10883;DHT22;5494;51.796;10.952;2023-04-03T00:26:44;0.40;99.90
10883;DHT22;5494;51.796;10.952;2023-04-03T00:29:33;0.40;99.90
10883;DHT22;5494;51.796;10.952;2023-04-03T00:32:21;0.50;99.90
10883;DHT22;5494;51.796;10.952;2023-04-03T00:35:10;0.40;99.90
10883;DHT22;5494;51.796;10.952;2023-04-03T00:37:58;0.40;99.90
10883;DHT22;5494;51.796;10.952;2023-04-03T00:40:49;0.40;99.90
10883;DHT22;5494;51.796;10.952;2023-04-03T00:43:37;0.40;99.90
10883;DHT22;5494;51.796;10.952;2023-04-03T00:46:28;0.30;99.90
10883;DHT22;5494;51.796;10.952;2023-04-03T00:49:16;0.30;99.90
10883;DHT22;5494;51.796;10.952;2023-04-03T00:52:05;0.20;99.90
10883;DHT22;5494;51.796;10.952;2023-04-03T00:54:59;0.20;99.90
10883;DHT22;5494;51.796;10.952;2023-04-03T00:57:55;0.10;99.90
10883;DHT22;5494;51.796;10.952;2023-04-03T01:00:48;0.20;99.90
10883;DHT22;5494;51.796;10.952;2023-04-03T01:03:44;0.20;99.90
10883;DHT22;5494;51.796;10.952;2023-04-03T01:06:36;0.20;99.90
10883;DHT22;5494;51.796;10.952;2023-04-03T01:09:28;0.10;99.90
10883;DHT22;5494;51.796;10.952;2023-04-03T01:12:20;0.10;99.90
10883;DHT22;5494;51.796;10.952;2023-04-03T01:15:14;0.10;99.90
10883;DHT22;5494;51.796;10.952;2023-04-03T01:18:04;0.10;99.90
10883;DHT22;5494;51.796;10.952;2023-04-03T01:21:14;0.00;99.90
10883;DHT22;5494;51.796;10.952;2023-04-03T01:24:31;0.10;99.90
10883;DHT22;5494;51.796;10.952;2023-04-03T01:27:24;0.10;99.90
10883;DHT22;5494;51.796;10.952;2023-04-03T01:30:17;0.10;99.90
10883;DHT22;5494;51.796;10.952;2023-04-03T01:33:08;0.00;99.90
10883;DHT22;5494;51.796;10.952;2023-04-03T01:35:57;0.00;99.90
10883;DHT22;5494;51.796;10.952;2023-04-03T01:38:46;-0.10;99.90
10883;DHT22;5494;51.796;10.952;2023-04-03T01:41:35;-0.10;99.90
10883;DHT22;5494;51.796;10.952;2023-04-03T01:44:31;-0.10;99.90
10883;DHT22;5494;51.796;10.952;2023-04-03T01:47:20;-0.10;99.90
10883;DHT22;5494;51.796;10.952;2023-04-03T01:50:11;-0.10;99.90
10883;DHT22;5494;51.796;10.952;2023-04-03T01:52:59;-0.20;99.90
10883;DHT22;5494;51.796;10.952;2023-04-03T01:55:48;-0.20;99.90
10883;DHT22;5494;51.796;10.952;2023-04-03T01:58:36;-0.20;99.90
10883;DHT22;5494;51.796;10.952;2023-04-03T02:01:25;-0.10;99.90
10883;DHT22;5494;51.796;10.952;2023-04-03T02:04:13;-0.20;99.90
10883;DHT22;5494;51.796;10.952;2023-04-03T02:07:03;-0.20;99.90
10883;DHT22;5494;51.796;10.952;2023-04-03T02:09:52;-0.20;99.90
10883;DHT22;5494;51.796;10.952;2023-04-03T02:12:41;-0.20;99.90
10883;DHT22;5494;51.796;10.952;2023-04-03T02:15:29;-0.20;99.90
10883;DHT22;5494;51.796;10.952;2023-04-03T02:18:17;-0.20;99.90
10883;DHT22;5494;51.796;10.952;2023-04-03T02:21:06;-0.20;99.90
10883;DHT22;5494;51.796;10.952;2023-04-03T02:23:55;-0.20;99.90
10883;DHT22;5494;51.796;10.952;2023-04-03T02:26:44;-0.30;99.90
10883;DHT22;5494;51.796;10.952;2023-04-03T02:29:32;-0.30;99.90
10883;DHT22;5494;51.796;10.952;2023-04-03T02:32:21;-0.30;99.90
10883;DHT22;5494;51.796;10.952;2023-04-03T02:35:11;-0.30;99.90
10883;DHT22;5494;51.796;10.952;2023-04-03T02:38:00;-0.30;99.90
10883;DHT22;5494;51.796;10.952;2023-04-03T02:40:49;-0.30;99.90
10883;DHT22;5494;51.796;10.952;2023-04-03T02:43:38;-0.30;99.90
10883;DHT22;5494;51.796;10.952;2023-04-03T02:46:27;-0.30;99.90
10883;DHT22;5494;51.796;10.952;2023-04-03T02:49:16;-0.40;99.90
10883;DHT22;5494;51.796;10.952;2023-04-03T02:52:04;-0.40;99.90
10883;DHT22;5494;51.796;10.952;2023-04-03T02:54:53;-0.40;99.90
10883;DHT22;5494;51.796;10.952;2023-04-03T02:57:42;-0.40;99.90
10883;DHT22;5494;51.796;10.952;2023-04-03T03:00:32;-0.40;99.90
10883;DHT22;5494;51.796;10.952;2023-04-03T03:03:22;-0.40;99.90
10883;DHT22;5494;51.796;10.952;2023-04-03T03:06:11;-0.50;99.90
10883;DHT22;5494;51.796;10.952;2023-04-03T03:09:01;-0.50;99.90
10883;DHT22;5494;51.796;10.952;2023-04-03T03:11:50;-0.50;99.90
10883;DHT22;5494;51.796;10.952;2023-04-03T03:14:39;-0.50;99.90
10883;DHT22;5494;51.796;10.952;2023-04-03T03:17:29;-0.60;99.90
10883;DHT22;5494;51.796;10.952;2023-04-03T03:20:18;-0.70;99.90
10883;DHT22;5494;51.796;10.952;2023-04-03T03:23:06;-0.70;99.90
10883;DHT22;5494;51.796;10.952;2023-04-03T03:25:55;-0.70;99.90
10883;DHT22;5494;51.796;10.952;2023-04-03T03:28:44;-0.70;99.90
10883;DHT22;5494;51.796;10.952;2023-04-03T03:31:34;-0.70;99.90
10883;DHT22;5494;51.796;10.952;2023-04-03T03:34:22;-0.60;99.90
10883;DHT22;5494;51.796;10.952;2023-04-03T03:37:11;-0.70;99.90
10883;DHT22;5494;51.796;10.952;2023-04-03T03:39:59;-0.70;99.90
10883;DHT22;5494;51.796;10.952;2023-04-03T03:42:48;-0.70;99.90
10883;DHT22;5494;51.796;10.952;2023-04-03T03:45:37;-0.70;99.90
10883;DHT22;5494;51.796;10.952;2023-04-03T03:48:27;-0.70;99.90
10883;DHT22;5494;51.796;10.952;2023-04-03T03:51:16;-0.70;99.90
10883;DHT22;5494;51.796;10.952;2023-04-03T03:54:05;-0.70;99.90
10883;DHT22;5494;51.796;10.952;2023-04-03T03:56:53;-0.80;99.90
10883;DHT22;5494;51.796;10.952;2023-04-03T03:59:43;-0.90;99.90
10883;DHT22;5494;51.796;10.952;2023-04-03T04:02:32;-0.90;99.90
10883;DHT22;5494;51.796;10.952;2023-04-03T04:05:23;-0.90;99.90
10883;DHT22;5494;51.796;10.952;2023-04-03T04:08:12;-0.90;99.90
10883;DHT22;5494;51.796;10.952;2023-04-03T04:11:02;-1.00;99.90
10883;DHT22;5494;51.796;10.952;2023-04-03T04:13:52;-0.90;99.90
10883;DHT22;5494;51.796;10.952;2023-04-03T04:16:44;-1.00;99.90
10883;DHT22;5494;51.796;10.952;2023-04-03T04:19:38;-1.00;99.90
10883;DHT22;5494;51.796;10.952;2023-04-03T04:22:28;-1.00;99.90
10883;DHT22;5494;51.796;10.952;2023-04-03T04:25:16;-0.90;99.90
10883;DHT22;5494;51.796;10.952;2023-04-03T04:28:05;-1.00;99.90
10883;DHT22;5494;51.796;10.952;2023-04-03T04:30:54;-1.00;99.90
10883;DHT22;5494;51.796;10.952;2023-04-03T04:33:45;-1.00;99.90
10883;DHT22;5494;51.796;10.952;2023-04-03T04:36:34;-1.00;99.90
10883;DHT22;5494;51.796;10.952;2023-04-03T04:39:25;-1.00;99.90
10883;DHT22;5494;51.796;10.952;2023-04-03T04:42:16;-1.00;99.90
10883;DHT22;5494;51.796;10.952;2023-04-03T04:45:07;-1.10;99.90
10883;DHT22;5494;51.796;10.952;2023-04-03T04:47:57;-1.00;99.90
10883;DHT22;5494;51.796;10.952;2023-04-03T04:50:45;-1.10;99.90
10883;DHT22;5494;51.796;10.952;2023-04-03T04:53:34;-1.10;99.90
10883;DHT22;5494;51.796;10.952;2023-04-03T04:56:24;-1.10;99.90
10883;DHT22;5494;51.796;10.952;2023-04-03T04:59:15;-1.00;99.90
10883;DHT22;5494;51.796;10.952;2023-04-03T05:02:07;-0.90;99.90
10883;DHT22;5494;51.796;10.952;2023-04-03T05:04:57;-0.70;99.90
10883;DHT22;5494;51.796;10.952;2023-04-03T05:07:49;-0.50;99.90
10883;DHT22;5494;51.796;10.952;2023-04-03T05:10:38;-0.30;99.90
10883;DHT22;5494;51.796;10.952;2023-04-03T05:13:29;0.00;99.90
10883;DHT22;5494;51.796;10.952;2023-04-03T05:16:17;0.30;99.90
10883;DHT22;5494;51.796;10.952;2023-04-03T05:18:46;0.60;99.90
10883;DHT22;5494;51.796;10.952;2023-04-03T05:21:18;0.90;99.90
10883;DHT22;5494;51.796;10.952;2023-04-03T05:23:48;1.20;99.90
10883;DHT22;5494;51.796;10.952;2023-04-03T05:26:17;1.50;99.90
10883;DHT22;5494;51.796;10.952;2023-04-03T05:28:48;2.90;99.90
10883;DHT22;5494;51.796;10.952;2023-04-03T05:31:17;2.10;99.90
10883;DHT22;5494;51.796;10.952;2023-04-03T05:33:46;2.60;99.90
10883;DHT22;5494;51.796;10.952;2023-04-03T05:36:17;3.00;99.90
10883;DHT22;5494;51.796;10.952;2023-04-03T05:38:49;3.60;99.90
10883;DHT22;5494;51.796;10.952;2023-04-03T05:41:18;4.10;99.90
10883;DHT22;5494;51.796;10.952;2023-04-03T05:43:48;4.60;99.90
10883;DHT22;5494;51.796;10.952;2023-04-03T05:46:19;5.40;99.90
10883;DHT22;5494;51.796;10.952;2023-04-03T05:48:52;6.50;99.90
10883;DHT22;5494;51.796;10.952;2023-04-03T05:51:25;6.70;99.90
10883;DHT22;5494;51.796;10.952;2023-04-03T05:54:08;6.60;99.90
10883;DHT22;5494;51.796;10.952;2023-04-03T05:56:40;6.80;99.90
10883;DHT22;5494;51.796;10.952;2023-04-03T05:59:10;7.30;99.90
10883;DHT22;5494;51.796;10.952;2023-04-03T06:01:38;7.70;99.90
10883;DHT22;5494;51.796;10.952;2023-04-03T06:04:07;6.90;99.90
10883;DHT22;5494;51.796;10.952;2023-04-03T06:06:44;5.60;99.90
10883;DHT22;5494;51.796;10.952;2023-04-03T06:09:15;4.60;99.90
10883;DHT22;5494;51.796;10.952;2023-04-03T06:11:43;4.10;99.90
10883;DHT22;5494;51.796;10.952;2023-04-03T06:14:13;4.00;99.90
10883;DHT22;5494;51.796;10.952;2023-04-03T06:16:41;3.80;99.90
10883;DHT22;5494;51.796;10.952;2023-04-03T06:19:11;4.20;99.90
10883;DHT22;5494;51.796;10.952;2023-04-03T06:21:45;4.60;99.90
10883;DHT22;5494;51.796;10.952;2023-04-03T06:24:16;4.70;99.90
10883;DHT22;5494;51.796;10.952;2023-04-03T06:26:44;4.40;99.90
10883;DHT22;5494;51.796;10.952;2023-04-03T06:29:14;4.70;99.90
10883;DHT22;5494;51.796;10.952;2023-04-03T06:31:42;5.10;99.90
10883;DHT22;5494;51.796;10.952;2023-04-03T06:34:10;5.50;99.90
10883;DHT22;5494;51.796;10.952;2023-04-03T06:36:39;5.20;99.90
10883;DHT22;5494;51.796;10.952;2023-04-03T06:39:08;5.20;99.90
10883;DHT22;5494;51.796;10.952;2023-04-03T06:41:39;5.00;99.90
10883;DHT22;5494;51.796;10.952;2023-04-03T06:44:07;5.60;99.90
10883;DHT22;5494;51.796;10.952;2023-04-03T06:46:39;5.80;99.90
10883;DHT22;5494;51.796;10.952;2023-04-03T06:49:07;6.30;99.90
10883;DHT22;5494;51.796;10.952;2023-04-03T06:51:35;6.30;99.90
10883;DHT22;5494;51.796;10.952;2023-04-03T06:54:05;6.00;99.90
10883;DHT22;5494;51.796;10.952;2023-04-03T06:56:35;6.70;99.90
10883;DHT22;5494;51.796;10.952;2023-04-03T06:59:03;7.50;99.90
10883;DHT22;5494;51.796;10.952;2023-04-03T07:01:31;8.70;99.90
10883;DHT22;5494;51.796;10.952;2023-04-03T07:04:00;8.60;99.90
10883;DHT22;5494;51.796;10.952;2023-04-03T07:06:29;9.20;99.90
10883;DHT22;5494;51.796;10.952;2023-04-03T07:08:58;9.40;99.90
10883;DHT22;5494;51.796;10.952;2023-04-03T07:11:26;9.60;99.90
10883;DHT22;5494;51.796;10.952;2023-04-03T07:13:54;9.70;99.90
10883;DHT22;5494;51.796;10.952;2023-04-03T07:16:23;9.20;99.90
10883;DHT22;5494;51.796;10.952;2023-04-03T07:18:51;8.60;99.90
10883;DHT22;5494;51.796;10.952;2023-04-03T07:21:20;7.00;99.90
10883;DHT22;5494;51.796;10.952;2023-04-03T07:23:51;6.90;99.90
10883;DHT22;5494;51.796;10.952;2023-04-03T07:26:19;7.10;99.90
10883;DHT22;5494;51.796;10.952;2023-04-03T07:28:49;6.50;99.90
10883;DHT22;5494;51.796;10.952;2023-04-03T07:31:17;6.20;99.90
10883;DHT22;5494;51.796;10.952;2023-04-03T07:33:45;6.00;99.90
10883;DHT22;5494;51.796;10.952;2023-04-03T07:36:17;5.80;99.90
10883;DHT22;5494;51.796;10.952;2023-04-03T07:38:48;5.80;99.90
10883;DHT22;5494;51.796;10.952;2023-04-03T07:41:19;5.80;99.90
10883;DHT22;5494;51.796;10.952;2023-04-03T07:43:49;6.30;99.90
10883;DHT22;5494;51.796;10.952;2023-04-03T07:46:17;6.70;99.90
10883;DHT22;5494;51.796;10.952;2023-04-03T07:48:45;6.90;99.90
10883;DHT22;5494;51.796;10.952;2023-04-03T07:51:13;7.10;99.90
10883;DHT22;5494;51.796;10.952;2023-04-03T07:53:41;7.20;99.90
10883;DHT22;5494;51.796;10.952;2023-04-03T07:56:11;6.80;99.90
10883;DHT22;5494;51.796;10.952;2023-04-03T07:58:39;6.20;99.90
10883;DHT22;5494;51.796;10.952;2023-04-03T08:01:07;5.60;99.90
10883;DHT22;5494;51.796;10.952;2023-04-03T08:03:35;6.20;99.90
10883;DHT22;5494;51.796;10.952;2023-04-03T08:06:07;6.40;99.90
10883;DHT22;5494;51.796;10.952;2023-04-03T08:08:41;6.50;99.90
10883;DHT22;5494;51.796;10.952;2023-04-03T08:11:14;6.90;99.90
10883;DHT22;5494;51.796;10.952;2023-04-03T08:13:42;7.50;99.90
10883;DHT22;5494;51.796;10.952;2023-04-03T08:16:12;7.90;99.90
10883;DHT22;5494;51.796;10.952;2023-04-03T08:18:43;7.80;99.90
10883;DHT22;5494;51.796;10.952;2023-04-03T08:21:12;7.30;99.90
10883;DHT22;5494;51.796;10.952;2023-04-03T08:23:40;7.60;99.90
10883;DHT22;5494;51.796;10.952;2023-04-03T08:26:09;7.80;99.90
10883;DHT22;5494;51.796;10.952;2023-04-03T08:28:42;8.10;99.90
10883;DHT22;5494;51.796;10.952;2023-04-03T08:31:11;7.60;99.90
10883;DHT22;5494;51.796;10.952;2023-04-03T08:33:41;7.10;99.90
10883;DHT22;5494;51.796;10.952;2023-04-03T08:36:17;6.50;99.90
10883;DHT22;5494;51.796;10.952;2023-04-03T08:38:47;6.30;99.90
10883;DHT22;5494;51.796;10.952;2023-04-03T08:41:20;5.80;99.90
10883;DHT22;5494;51.796;10.952;2023-04-03T08:44:10;4.80;99.90
10883;DHT22;5494;51.796;10.952;2023-04-03T08:46:54;4.60;99.90
10883;DHT22;5494;51.796;10.952;2023-04-03T08:49:32;4.60;99.90
10883;DHT22;5494;51.796;10.952;2023-04-03T08:52:07;4.60;99.90
10883;DHT22;5494;51.796;10.952;2023-04-03T08:54:49;4.50;99.90
10883;DHT22;5494;51.796;10.952;2023-04-03T08:57:26;4.60;99.90
10883;DHT22;5494;51.796;10.952;2023-04-03T09:00:02;4.50;99.90
10883;DHT22;5494;51.796;10.952;2023-04-03T09:02:41;4.70;99.90
10883;DHT22;5494;51.796;10.952;2023-04-03T09:05:18;4.70;99.90
10883;DHT22;5494;51.796;10.952;2023-04-03T09:07:57;4.60;99.90
10883;DHT22;5494;51.796;10.952;2023-04-03T09:10:34;4.60;99.90
10883;DHT22;5494;51.796;10.952;2023-04-03T09:13:12;4.60;99.90
10883;DHT22;5494;51.796;10.952;2023-04-03T09:15:50;4.50;99.90
10883;DHT22;5494;51.796;10.952;2023-04-03T09:18:23;4.50;99.90
10883;DHT22;5494;51.796;10.952;2023-04-03T09:21:01;4.50;99.90
10883;DHT22;5494;51.796;10.952;2023-04-03T09:23:39;4.70;99.90
10883;DHT22;5494;51.796;10.952;2023-04-03T09:26:15;4.80;99.90
10883;DHT22;5494;51.796;10.952;2023-04-03T09:28:47;4.60;99.90
10883;DHT22;5494;51.796;10.952;2023-04-03T09:31:21;4.10;99.90
10883;DHT22;5494;51.796;10.952;2023-04-03T09:33:54;4.20;99.90
10883;DHT22;5494;51.796;10.952;2023-04-03T09:36:41;4.40;99.90
10883;DHT22;5494;51.796;10.952;2023-04-03T09:39:13;4.40;99.90
10883;DHT22;5494;51.796;10.952;2023-04-03T09:41:56;4.30;99.90
10883;DHT22;5494;51.796;10.952;2023-04-03T09:44:29;4.00;99.90
10883;DHT22;5494;51.796;10.952;2023-04-03T09:47:18;3.90;99.90
10883;DHT22;5494;51.796;10.952;2023-04-03T09:49:51;3.80;99.90
10883;DHT22;5494;51.796;10.952;2023-04-03T09:52:45;3.80;99.90
10883;DHT22;5494;51.796;10.952;2023-04-03T09:55:16;3.90;99.90
10883;DHT22;5494;51.796;10.952;2023-04-03T09:57:46;4.00;99.90
10883;DHT22;5494;51.796;10.952;2023-04-03T10:00:22;3.90;99.90
10883;DHT22;5494;51.796;10.952;2023-04-03T10:02:55;3.80;99.90
10883;DHT22;5494;51.796;10.952;2023-04-03T10:05:31;3.90;99.90
10883;DHT22;5494;51.796;10.952;2023-04-03T10:08:08;4.00;99.90
10883;DHT22;5494;51.796;10.952;2023-04-03T10:10:43;4.00;99.90
10883;DHT22;5494;51.796;10.952;2023-04-03T10:13:14;4.10;99.90
10883;DHT22;5494;51.796;10.952;2023-04-03T10:15:51;4.10;99.90
10883;DHT22;5494;51.796;10.952;2023-04-03T10:18:32;4.30;99.90
10883;DHT22;5494;51.796;10.952;2023-04-03T10:21:08;4.30;99.90
10883;DHT22;5494;51.796;10.952;2023-04-03T10:24:00;4.30;99.90
10883;DHT22;5494;51.796;10.952;2023-04-03T10:26:41;4.30;99.90
10883;DHT22;5494;51.796;10.952;2023-04-03T10:29:25;4.30;99.90
10883;DHT22;5494;51.796;10.952;2023-04-03T10:32:15;4.30;99.90
10883;DHT22;5494;51.796;10.952;2023-04-03T10:35:02;4.20;99.90
10883;DHT22;5494;51.796;10.952;2023-04-03T10:37:49;4.10;99.90
10883;DHT22;5494;51.796;10.952;2023-04-03T10:40:33;4.10;99.90
10883;DHT22;5494;51.796;10.952;2023-04-03T10:43:15;4.10;99.90
10883;DHT22;5494;51.796;10.952;2023-04-03T10:45:57;4.00;99.90
10883;DHT22;5494;51.796;10.952;2023-04-03T10:48:39;4.00;99.90
10883;DHT22;5494;51.796;10.952;2023-04-03T10:51:24;3.90;99.90
10883;DHT22;5494;51.796;10.952;2023-04-03T10:54:04;4.00;99.90
10883;DHT22;5494;51.796;10.952;2023-04-03T10:56:38;4.10;99.90
10883;DHT22;5494;51.796;10.952;2023-04-03T10:59:18;4.30;99.90
10883;DHT22;5494;51.796;10.952;2023-04-03T11:01:56;4.30;99.90
10883;DHT22;5494;51.796;10.952;2023-04-03T11:04:31;4.30;99.90
10883;DHT22;5494;51.796;10.952;2023-04-03T11:07:10;4.40;99.90
10883;DHT22;5494;51.796;10.952;2023-04-03T11:09:48;4.40;99.90
10883;DHT22;5494;51.796;10.952;2023-04-03T11:12:24;4.40;99.90
10883;DHT22;5494;51.796;10.952;2023-04-03T11:14:57;4.40;99.90
10883;DHT22;5494;51.796;10.952;2023-04-03T11:17:30;4.30;99.90
10883;DHT22;5494;51.796;10.952;2023-04-03T11:20:06;4.30;99.90
10883;DHT22;5494;51.796;10.952;2023-04-03T11:22:48;4.30;99.90
10883;DHT22;5494;51.796;10.952;2023-04-03T11:25:23;4.60;99.90
10883;DHT22;5494;51.796;10.952;2023-04-03T11:27:55;4.70;99.90
10883;DHT22;5494;51.796;10.952;2023-04-03T11:30:28;4.70;99.90
10883;DHT22;5494;51.796;10.952;2023-04-03T11:33:22;4.60;99.90
10883;DHT22;5494;51.796;10.952;2023-04-03T11:35:58;4.40;99.90
10883;DHT22;5494;51.796;10.952;2023-04-03T11:38:47;4.50;99.90
10883;DHT22;5494;51.796;10.952;2023-04-03T11:41:26;4.60;99.90
10883;DHT22;5494;51.796;10.952;2023-04-03T11:43:58;4.60;99.90
10883;DHT22;5494;51.796;10.952;2023-04-03T11:46:51;4.60;99.90
10883;DHT22;5494;51.796;10.952;2023-04-03T11:49:52;4.60;99.90
10883;DHT22;5494;51.796;10.952;2023-04-03T11:55:51;4.60;99.90
10883;DHT22;5494;51.796;10.952;2023-04-03T11:58:22;4.70;99.90
10883;DHT22;5494;51.796;10.952;2023-04-03T12:01:00;4.70;99.90
10883;DHT22;5494;51.796;10.952;2023-04-03T12:10:14;4.20;99.90
10883;DHT22;5494;51.796;10.952;2023-04-03T12:13:00;4.30;99.90
10883;DHT22;5494;51.796;10.952;2023-04-03T12:15:54;4.60;99.90
10883;DHT22;5494;51.796;10.952;2023-04-03T12:18:58;4.80;99.90
10883;DHT22;5494;51.796;10.952;2023-04-03T12:24:36;4.90;99.90
10883;DHT22;5494;51.796;10.952;2023-04-03T12:27:20;4.70;99.90
10883;DHT22;5494;51.796;10.952;2023-04-03T12:30:00;4.80;99.90
10883;DHT22;5494;51.796;10.952;2023-04-03T12:32:46;4.90;99.90
10883;DHT22;5494;51.796;10.952;2023-04-03T12:35:44;5.00;99.90
10883;DHT22;5494;51.796;10.952;2023-04-03T12:38:50;5.00;99.90
10883;DHT22;5494;51.796;10.952;2023-04-03T12:41:36;5.00;99.90
10883;DHT22;5494;51.796;10.952;2023-04-03T12:44:24;5.00;99.90
10883;DHT22;5494;51.796;10.952;2023-04-03T12:47:19;5.00;99.90
10883;DHT22;5494;51.796;10.952;2023-04-03T12:49:52;5.00;99.90
10883;DHT22;5494;51.796;10.952;2023-04-03T12:52:30;4.80;99.90
10883;DHT22;5494;51.796;10.952;2023-04-03T12:55:08;4.60;99.90
10883;DHT22;5494;51.796;10.952;2023-04-03T12:57:43;4.70;99.90
10883;DHT22;5494;51.796;10.952;2023-04-03T13:00:31;4.80;99.90
10883;DHT22;5494;51.796;10.952;2023-04-03T13:03:05;4.90;99.90
10883;DHT22;5494;51.796;10.952;2023-04-03T13:05:35;4.90;99.90
10883;DHT22;5494;51.796;10.952;2023-04-03T13:08:05;5.00;99.90
10883;DHT22;5494;51.796;10.952;2023-04-03T13:10:51;5.10;99.90
10883;DHT22;5494;51.796;10.952;2023-04-03T13:13:23;5.30;99.90
10883;DHT22;5494;51.796;10.952;2023-04-03T13:15:54;5.50;99.90
10883;DHT22;5494;51.796;10.952;2023-04-03T13:18:29;5.40;99.90
10883;DHT22;5494;51.796;10.952;2023-04-03T13:21:03;5.30;99.90
10883;DHT22;5494;51.796;10.952;2023-04-03T13:23:35;5.10;99.90
10883;DHT22;5494;51.796;10.952;2023-04-03T13:26:07;5.10;99.90
10883;DHT22;5494;51.796;10.952;2023-04-03T13:28:36;5.00;99.90
10883;DHT22;5494;51.796;10.952;2023-04-03T13:31:08;4.80;99.90
10883;DHT22;5494;51.796;10.952;2023-04-03T13:33:54;4.90;99.90
10883;DHT22;5494;51.796;10.952;2023-04-03T13:36:27;5.00;99.90
10883;DHT22;5494;51.796;10.952;2023-04-03T13:39:04;5.30;99.90
10883;DHT22;5494;51.796;10.952;2023-04-03T13:41:35;5.40;99.90
10883;DHT22;5494;51.796;10.952;2023-04-03T13:44:27;5.30;99.90
10883;DHT22;5494;51.796;10.952;2023-04-03T13:47:00;5.40;99.90
10883;DHT22;5494;51.796;10.952;2023-04-03T13:49:44;5.50;99.90
10883;DHT22;5494;51.796;10.952;2023-04-03T13:52:22;5.60;99.90
10883;DHT22;5494;51.796;10.952;2023-04-03T13:54:58;5.50;99.90
10883;DHT22;5494;51.796;10.952;2023-04-03T13:57:33;5.40;99.90
10883;DHT22;5494;51.796;10.952;2023-04-03T14:00:19;5.40;99.90
10883;DHT22;5494;51.796;10.952;2023-04-03T14:02:59;5.50;99.90
10883;DHT22;5494;51.796;10.952;2023-04-03T14:05:28;5.40;99.90
10883;DHT22;5494;51.796;10.952;2023-04-03T14:07:57;5.50;99.90
10883;DHT22;5494;51.796;10.952;2023-04-03T14:10:25;5.50;99.90
10883;DHT22;5494;51.796;10.952;2023-04-03T14:12:53;5.50;99.90
10883;DHT22;5494;51.796;10.952;2023-04-03T14:15:23;5.50;99.90
10883;DHT22;5494;51.796;10.952;2023-04-03T14:17:54;5.90;99.90
10883;DHT22;5494;51.796;10.952;2023-04-03T14:20:26;5.10;99.90
10883;DHT22;5494;51.796;10.952;2023-04-03T14:22:56;5.10;99.90
10883;DHT22;5494;51.796;10.952;2023-04-03T14:25:24;5.10;99.90
10883;DHT22;5494;51.796;10.952;2023-04-03T14:27:53;5.10;99.90
10883;DHT22;5494;51.796;10.952;2023-04-03T14:30:23;5.10;99.90
10883;DHT22;5494;51.796;10.952;2023-04-03T14:32:54;5.10;99.90
10883;DHT22;5494;51.796;10.952;2023-04-03T14:35:24;5.10;99.90
10883;DHT22;5494;51.796;10.952;2023-04-03T14:37:53;5.10;99.90
10883;DHT22;5494;51.796;10.952;2023-04-03T14:40:25;5.10;99.90
10883;DHT22;5494;51.796;10.952;2023-04-03T14:42:54;5.20;99.90
10883;DHT22;5494;51.796;10.952;2023-04-03T14:45:24;5.20;99.90
10883;DHT22;5494;51.796;10.952;2023-04-03T14:47:54;5.10;99.90
10883;DHT22;5494;51.796;10.952;2023-04-03T14:50:25;5.10;99.90
10883;DHT22;5494;51.796;10.952;2023-04-03T14:52:57;5.10;99.90
10883;DHT22;5494;51.796;10.952;2023-04-03T14:55:26;5.20;99.90
10883;DHT22;5494;51.796;10.952;2023-04-03T14:57:55;5.30;99.90
10883;DHT22;5494;51.796;10.952;2023-04-03T15:00:23;5.30;99.90
10883;DHT22;5494;51.796;10.952;2023-04-03T15:02:51;5.30;99.90
10883;DHT22;5494;51.796;10.952;2023-04-03T15:05:19;5.20;99.90
10883;DHT22;5494;51.796;10.952;2023-04-03T15:07:50;5.10;99.90
10883;DHT22;5494;51.796;10.952;2023-04-03T15:10:25;5.10;99.90
10883;DHT22;5494;51.796;10.952;2023-04-03T15:12:55;5.20;99.90
10883;DHT22;5494;51.796;10.952;2023-04-03T15:15:24;5.20;99.90
10883;DHT22;5494;51.796;10.952;2023-04-03T15:17:57;5.30;99.90
10883;DHT22;5494;51.796;10.952;2023-04-03T15:20:26;5.20;99.90
10883;DHT22;5494;51.796;10.952;2023-04-03T15:22:57;5.30;99.90
10883;DHT22;5494;51.796;10.952;2023-04-03T15:25:29;5.20;99.90
10883;DHT22;5494;51.796;10.952;2023-04-03T15:27:59;5.10;99.90
10883;DHT22;5494;51.796;10.952;2023-04-03T15:30:28;5.10;99.90
10883;DHT22;5494;51.796;10.952;2023-04-03T15:32:56;5.10;99.90
10883;DHT22;5494;51.796;10.952;2023-04-03T15:35:24;5.10;99.90
10883;DHT22;5494;51.796;10.952;2023-04-03T15:37:52;5.20;99.90
10883;DHT22;5494;51.796;10.952;2023-04-03T15:40:20;5.30;99.90
10883;DHT22;5494;51.796;10.952;2023-04-03T15:42:49;5.30;99.90
10883;DHT22;5494;51.796;10.952;2023-04-03T15:45:20;5.30;99.90
10883;DHT22;5494;51.796;10.952;2023-04-03T15:47:48;5.30;99.90
10883;DHT22;5494;51.796;10.952;2023-04-03T15:50:17;5.30;99.90
10883;DHT22;5494;51.796;10.952;2023-04-03T15:52:45;5.30;99.90
10883;DHT22;5494;51.796;10.952;2023-04-03T15:55:13;5.10;99.90
10883;DHT22;5494;51.796;10.952;2023-04-03T15:57:41;5.10;99.90
10883;DHT22;5494;51.796;10.952;2023-04-03T16:00:13;5.00;99.90
10883;DHT22;5494;51.796;10.952;2023-04-03T16:02:41;4.90;99.90
10883;DHT22;5494;51.796;10.952;2023-04-03T16:05:10;4.90;99.90
10883;DHT22;5494;51.796;10.952;2023-04-03T16:07:39;4.90;99.90
10883;DHT22;5494;51.796;10.952;2023-04-03T16:10:09;4.90;99.90
10883;DHT22;5494;51.796;10.952;2023-04-03T16:12:38;4.80;99.90
10883;DHT22;5494;51.796;10.952;2023-04-03T16:15:07;4.80;99.90
10883;DHT22;5494;51.796;10.952;2023-04-03T16:17:37;4.80;99.90
10883;DHT22;5494;51.796;10.952;2023-04-03T16:20:10;4.90;99.90
10883;DHT22;5494;51.796;10.952;2023-04-03T16:22:39;4.90;99.90
10883;DHT22;5494;51.796;10.952;2023-04-03T16:25:08;4.90;99.90
10883;DHT22;5494;51.796;10.952;2023-04-03T16:27:37;4.80;99.90
10883;DHT22;5494;51.796;10.952;2023-04-03T16:30:06;4.80;99.90
10883;DHT22;5494;51.796;10.952;2023-04-03T16:32:38;4.80;99.90
10883;DHT22;5494;51.796;10.952;2023-04-03T16:35:07;4.70;99.90
10883;DHT22;5494;51.796;10.952;2023-04-03T16:37:38;4.70;99.90
10883;DHT22;5494;51.796;10.952;2023-04-03T16:40:08;4.70;99.90
10883;DHT22;5494;51.796;10.952;2023-04-03T16:42:36;4.80;99.90
10883;DHT22;5494;51.796;10.952;2023-04-03T16:45:05;4.70;99.90
10883;DHT22;5494;51.796;10.952;2023-04-03T16:47:34;4.70;99.90
10883;DHT22;5494;51.796;10.952;2023-04-03T16:50:07;4.70;99.90
10883;DHT22;5494;51.796;10.952;2023-04-03T16:52:36;4.70;99.90
10883;DHT22;5494;51.796;10.952;2023-04-03T16:55:05;4.60;99.90
10883;DHT22;5494;51.796;10.952;2023-04-03T16:57:34;4.50;99.90
10883;DHT22;5494;51.796;10.952;2023-04-03T17:00:03;4.50;99.90
10883;DHT22;5494;51.796;10.952;2023-04-03T17:02:32;4.50;99.90
10883;DHT22;5494;51.796;10.952;2023-04-03T17:05:00;4.50;99.90
10883;DHT22;5494;51.796;10.952;2023-04-03T17:07:29;4.40;99.90